CheckWX is a tool to help pilots better visualize weather data.  It is not intended as a substitute for an official pre-flight weather briefing.

04:32:02 UTC

EBDT METAR
Schaffen Airfield Airport
Diest, Belgium
Current

37 mins ago

EBDT 110355Z AUTO VRB01KT 9999 FEW150/// SCT220/// 09/09 Q1022 BLU
Observed
Jul-11 @ 03:55 UTC
Wind
  • Variable at 1 KTS
Visibility
10,000+ meters
Flight Rules
VFR
Cloud Levels
  • Few at 15,000' AGL
  • Scattered at 22,000' AGL
Temperature
C / 48°F
Dewpoint
C / 48°F
Humidity
100%
Altimeter
30.18" Hg
Pressure
1021.92 hPa
Previous

1 hour ago

EBDT 110325Z AUTO VRB01KT 9999 NCD 09/08 Q1022 BLU
Observed
Jul-11 @ 03:25 UTC
Wind
  • Variable at 1 KTS
Visibility
10,000+ meters
Flight Rules
VFR
Cloud Levels
  • Clear skies
Temperature
C / 48°F
Dewpoint
C / 46°F
Humidity
94%
Altimeter
30.18" Hg
Pressure
1021.92 hPa
Previous

2 hours ago

EBDT 110255Z AUTO VRB01KT 9999 FEW160/// 09/08 Q1022 BLU
Observed
Jul-11 @ 02:55 UTC
Wind
  • Variable at 1 KTS
Visibility
10,000+ meters
Flight Rules
VFR
Cloud Levels
  • Few at 16,000' AGL
Temperature
C / 48°F
Dewpoint
C / 46°F
Humidity
94%
Altimeter
30.18" Hg
Pressure
1021.92 hPa